Time;durP1;ratioP1;P1;durP2;ratioP2;P2;SDS_P1;SDS_P2;PMS_P1;PMS_P2;Temp;Humidity;BMP_temperature;BMP_pressure;BME280_temperature;BME280_humidity;BME280_pressure;Samples;Min_cycle;Max_cycle;Signal;HPM_P1;HPM_P2
2023/12/02 00:02:16;;;;;;;313.40;112.75;;;;;;;;;;5010915;28;20053;-83
2023/12/02 00:04:42;;;;;;;304.10;110.43;;;;;;;;;;5012930;28;20080;-83
2023/12/02 00:07:10;;;;;;;308.48;110.45;;;;;;;;;;5012146;28;20041;-83
2023/12/02 00:09:36;;;;;;;311.42;111.80;;;;;;;;;;5012182;28;20029;-83
2023/12/02 00:12:03;;;;;;;295.27;107.18;;;;;;;;;;5012112;28;20022;-84
2023/12/02 00:14:29;;;;;;;309.73;112.68;;;;;;;;;;5012094;28;20508;-83
2023/12/02 00:16:55;;;;;;;310.42;113.47;;;;;;;;;;5011993;28;20409;-83
2023/12/02 00:19:21;;;;;;;312.02;112.03;;;;;;;;;;5011928;28;20036;-84
2023/12/02 00:21:47;;;;;;;299.98;108.93;;;;;;;;;;5011991;28;20109;-85
2023/12/02 00:24:13;;;;;;;305.30;110.00;;;;;;;;;;5012867;28;20141;-83
2023/12/02 00:26:39;;;;;;;309.42;111.20;;;;;;;;;;5011741;28;20084;-85
2023/12/02 00:29:05;;;;;;;307.63;110.45;;;;;;;;;;5011791;28;20350;-84
2023/12/02 00:31:31;;;;;;;309.52;113.65;;;;;;;;;;5011749;28;20037;-83
2023/12/02 00:33:57;;;;;;;305.35;112.72;;;;;;;;;;4994070;28;20549;-85
2023/12/02 00:36:23;;;;;;;308.05;113.07;;;;;;;;;;4994046;28;20052;-84
2023/12/02 00:38:49;;;;;;;302.23;111.63;;;;;;;;;;5011649;28;20538;-84
2023/12/02 00:41:16;;;;;;;300.80;110.90;;;;;;;;;;5012425;28;20065;-83
2023/12/02 00:43:42;;;;;;;305.40;112.22;;;;;;;;;;5012421;28;20109;-83
2023/12/02 00:46:08;;;;;;;301.52;110.32;;;;;;;;;;5011421;28;20109;-84
2023/12/02 00:48:34;;;;;;;306.48;112.38;;;;;;;;;;5011500;28;20022;-84
2023/12/02 00:51:00;;;;;;;280.77;103.93;;;;;;;;;;5011458;28;20374;-83
2023/12/02 00:53:26;;;;;;;310.95;115.07;;;;;;;;;;4993744;28;20022;-84
2023/12/02 00:55:52;;;;;;;300.33;111.22;;;;;;;;;;4993763;28;20029;-83
2023/12/02 00:58:18;;;;;;;290.58;107.22;;;;;;;;;;5011324;28;20029;-83
2023/12/02 01:00:44;;;;;;;298.67;109.60;;;;;;;;;;5012055;28;20026;-84
2023/12/02 01:03:10;;;;;;;295.42;108.22;;;;;;;;;;5010779;28;20490;-85
2023/12/02 01:05:35;;;;;;;307.95;113.05;;;;;;;;;;5010232;28;20044;-84
2023/12/02 01:08:01;;;;;;;297.05;109.60;;;;;;;;;;5011108;28;20034;-84
2023/12/02 01:10:27;;;;;;;296.40;108.60;;;;;;;;;;5011050;28;20082;-83
2023/12/02 01:12:53;;;;;;;295.38;107.68;;;;;;;;;;5010930;28;20025;-83
2023/12/02 01:15:19;;;;;;;290.75;106.88;;;;;;;;;;4993338;28;20029;-84
2023/12/02 01:17:45;;;;;;;301.40;109.80;;;;;;;;;;5011687;28;20076;-83
2023/12/02 01:20:11;;;;;;;297.42;108.20;;;;;;;;;;4993209;28;20030;-84
2023/12/02 01:22:37;;;;;;;285.20;104.05;;;;;;;;;;5010845;28;20057;-83
2023/12/02 01:25:03;;;;;;;285.98;107.45;;;;;;;;;;5010726;28;20026;-83
2023/12/02 01:27:29;;;;;;;286.25;104.07;;;;;;;;;;4993096;28;20032;-83
2023/12/02 01:29:55;;;;;;;282.02;103.43;;;;;;;;;;5010736;28;20026;-83
2023/12/02 01:32:21;;;;;;;273.58;101.10;;;;;;;;;;4992755;28;20030;-84
2023/12/02 01:34:47;;;;;;;276.33;102.20;;;;;;;;;;5011489;28;20470;-85
2023/12/02 01:37:13;;;;;;;255.52;95.57;;;;;;;;;;4993027;28;20025;-85
2023/12/02 01:39:39;;;;;;;275.52;101.55;;;;;;;;;;4992928;28;20050;-84
2023/12/02 01:42:05;;;;;;;276.27;103.18;;;;;;;;;;5010456;28;20026;-83
2023/12/02 01:44:32;;;;;;;279.15;102.72;;;;;;;;;;5010394;28;20470;-84
2023/12/02 01:46:59;;;;;;;290.98;105.10;;;;;;;;;;5010351;28;20092;-86
2023/12/02 01:49:25;;;;;;;289.83;104.78;;;;;;;;;;5010337;28;20029;-84
2023/12/02 01:51:51;;;;;;;305.75;109.15;;;;;;;;;;5010204;28;20041;-83
2023/12/02 01:54:18;;;;;;;302.42;108.57;;;;;;;;;;5011081;28;20018;-84
2023/12/02 01:56:45;;;;;;;297.85;107.47;;;;;;;;;;5010671;28;20028;-83
2023/12/02 01:59:12;;;;;;;302.40;108.55;;;;;;;;;;5010146;28;20033;-84
2023/12/02 02:01:38;;;;;;;306.85;109.55;;;;;;;;;;5010076;28;20088;-83
2023/12/02 02:04:04;;;;;;;312.88;113.68;;;;;;;;;;5010097;28;20018;-83
2023/12/02 02:06:30;;;;;;;310.55;111.72;;;;;;;;;;5010047;28;20107;-83
2023/12/02 02:08:56;;;;;;;314.10;112.30;;;;;;;;;;5009989;28;20478;-83
2023/12/02 02:11:21;;;;;;;301.30;107.97;;;;;;;;;;4992359;28;20037;-83
2023/12/02 02:13:47;;;;;;;302.58;108.07;;;;;;;;;;5010693;28;20467;-84
2023/12/02 02:16:13;;;;;;;287.65;103.78;;;;;;;;;;4992255;28;20026;-83
2023/12/02 02:18:39;;;;;;;289.73;104.68;;;;;;;;;;5009759;28;20018;-84
2023/12/02 02:21:05;;;;;;;293.67;104.95;;;;;;;;;;5009821;28;20080;-83
2023/12/02 02:23:31;;;;;;;290.33;105.88;;;;;;;;;;5009795;28;20022;-83
2023/12/02 02:25:57;;;;;;;282.25;102.25;;;;;;;;;;5009688;28;20044;-83
2023/12/02 02:28:24;;;;;;;278.55;101.40;;;;;;;;;;4991872;28;20036;-83
2023/12/02 02:30:51;;;;;;;276.98;100.78;;;;;;;;;;4992874;28;20028;-83
2023/12/02 02:33:17;;;;;;;280.98;102.00;;;;;;;;;;5010568;28;20525;-83
2023/12/02 02:35:43;;;;;;;300.23;107.10;;;;;;;;;;5009633;28;20054;-83
2023/12/02 02:38:09;;;;;;;301.48;109.40;;;;;;;;;;5009494;28;20064;-83
2023/12/02 02:40:35;;;;;;;306.00;110.35;;;;;;;;;;5009438;28;20032;-89
2023/12/02 02:43:01;;;;;;;309.50;112.30;;;;;;;;;;5009366;28;20034;-83
2023/12/02 02:45:27;;;;;;;274.83;99.30;;;;;;;;;;5009492;28;20544;-83
2023/12/02 02:47:53;;;;;;;305.02;108.70;;;;;;;;;;5009460;28;20036;-83
2023/12/02 02:50:19;;;;;;;207.85;79.63;;;;;;;;;;4992651;28;20068;-83
2023/12/02 02:52:45;;;;;;;266.33;97.55;;;;;;;;;;5009336;28;20037;-83
2023/12/02 02:55:11;;;;;;;247.85;92.65;;;;;;;;;;4991641;28;20022;-84
2023/12/02 02:57:37;;;;;;;314.05;108.93;;;;;;;;;;5009230;28;20441;-83
2023/12/02 03:00:10;;;;;;;304.30;108.57;;;;;;;;;;4991721;28;20496;-83
2023/12/02 03:02:37;;;;;;;306.92;108.78;;;;;;;;;;5009112;28;20080;-84
2023/12/02 03:05:04;;;;;;;308.77;111.03;;;;;;;;;;5009139;28;20478;-84
2023/12/02 03:07:30;;;;;;;304.85;109.65;;;;;;;;;;5009176;28;20113;-84
2023/12/02 03:09:56;;;;;;;301.77;108.38;;;;;;;;;;5009235;28;20057;-83
2023/12/02 03:12:23;;;;;;;277.48;101.55;;;;;;;;;;5010047;28;20034;-84
2023/12/02 03:14:49;;;;;;;273.95;100.57;;;;;;;;;;5009939;28;20037;-84
2023/12/02 03:17:15;;;;;;;247.77;92.25;;;;;;;;;;5009111;28;20030;-84
2023/12/02 03:19:41;;;;;;;260.42;98.65;;;;;;;;;;5009066;28;20026;-83
2023/12/02 03:22:07;;;;;;;207.32;80.38;;;;;;;;;;4991224;28;20022;-83
2023/12/02 03:24:33;;;;;;;144.30;63.10;;;;;;;;;;5009098;28;20108;-83
2023/12/02 03:26:59;;;;;;;247.15;94.40;;;;;;;;;;5008879;28;20121;-83
2023/12/02 03:29:25;;;;;;;241.43;91.25;;;;;;;;;;5010798;28;20061;-83
2023/12/02 03:31:51;;;;;;;254.75;95.35;;;;;;;;;;5013689;28;20029;-83
2023/12/02 03:34:17;;;;;;;250.82;94.80;;;;;;;;;;5012917;28;20096;-82
2023/12/02 03:36:43;;;;;;;258.63;98.22;;;;;;;;;;4995187;28;20116;-83
2023/12/02 03:39:12;;;;;;;252.20;96.55;;;;;;;;;;5012739;28;20057;-83
2023/12/02 03:41:38;;;;;;;256.40;98.65;;;;;;;;;;4995045;28;20433;-83
2023/12/02 03:44:04;;;;;;;265.92;101.72;;;;;;;;;;5012682;28;20022;-83
2023/12/02 03:46:30;;;;;;;267.05;101.93;;;;;;;;;;5012528;28;20061;-83
2023/12/02 03:48:57;;;;;;;261.92;99.93;;;;;;;;;;5012648;28;20018;-83
2023/12/02 03:51:23;;;;;;;261.60;100.03;;;;;;;;;;5013421;28;20026;-83
2023/12/02 03:53:50;;;;;;;267.45;101.15;;;;;;;;;;5012385;28;20474;-83
2023/12/02 03:56:16;;;;;;;266.70;101.38;;;;;;;;;;4994735;28;20247;-83
2023/12/02 03:58:42;;;;;;;275.48;104.80;;;;;;;;;;5012444;28;20029;-83
2023/12/02 04:01:08;;;;;;;275.42;105.03;;;;;;;;;;5012292;28;20474;-83
2023/12/02 04:03:34;;;;;;;278.17;105.85;;;;;;;;;;5012431;28;20022;-83
2023/12/02 04:06:00;;;;;;;271.20;103.75;;;;;;;;;;4994720;28;20123;-85
2023/12/02 04:08:26;;;;;;;265.98;101.63;;;;;;;;;;5012900;28;20057;-84
2023/12/02 04:10:52;;;;;;;254.07;97.75;;;;;;;;;;5013052;28;20033;-83
2023/12/02 04:13:18;;;;;;;255.05;98.53;;;;;;;;;;5012089;28;20029;-84
2023/12/02 04:15:46;;;;;;;218.50;87.30;;;;;;;;;;5012234;28;20029;-84
2023/12/02 04:18:12;;;;;;;234.02;91.93;;;;;;;;;;4994457;28;20030;-83
2023/12/02 04:20:38;;;;;;;252.25;99.68;;;;;;;;;;5012067;28;20079;-84
2023/12/02 04:23:04;;;;;;;266.38;103.10;;;;;;;;;;5011829;28;20430;-84
2023/12/02 04:25:30;;;;;;;275.98;106.85;;;;;;;;;;5011899;28;20022;-83
2023/12/02 04:27:57;;;;;;;256.85;99.70;;;;;;;;;;5012811;28;20041;-83
2023/12/02 04:30:23;;;;;;;261.35;100.55;;;;;;;;;;5012708;28;20034;-83
2023/12/02 04:32:49;;;;;;;255.27;99.15;;;;;;;;;;5011715;28;20116;-85
2023/12/02 04:35:15;;;;;;;267.98;103.80;;;;;;;;;;4994165;28;20029;-84
2023/12/02 04:37:41;;;;;;;270.15;106.28;;;;;;;;;;5011636;28;20084;-86
2023/12/02 04:40:11;;;;;;;251.05;99.15;;;;;;;;;;5010610;28;20426;-84
2023/12/02 04:42:40;;;;;;;274.52;106.20;;;;;;;;;;5011346;28;20021;-84
2023/12/02 04:45:06;;;;;;;270.35;106.75;;;;;;;;;;5012605;28;20030;-83
2023/12/02 04:47:32;;;;;;;264.63;103.93;;;;;;;;;;4995462;28;20030;-83
2023/12/02 04:49:58;;;;;;;261.05;102.40;;;;;;;;;;5013893;28;20033;-88
2023/12/02 04:52:24;;;;;;;263.52;102.40;;;;;;;;;;5013029;28;20029;-88
2023/12/02 04:54:50;;;;;;;233.82;91.53;;;;;;;;;;5011436;28;20030;-83
2023/12/02 04:57:16;;;;;;;255.30;100.05;;;;;;;;;;4993674;28;20065;-87
2023/12/02 04:59:42;;;;;;;263.17;103.50;;;;;;;;;;5011296;28;20033;-85
2023/12/02 05:02:09;;;;;;;269.70;103.85;;;;;;;;;;5011031;28;20038;-83
2023/12/02 05:04:35;;;;;;;284.23;109.72;;;;;;;;;;5011171;28;20030;-84
2023/12/02 05:07:01;;;;;;;259.52;102.70;;;;;;;;;;5010968;28;20033;-83
2023/12/02 05:09:27;;;;;;;249.23;98.15;;;;;;;;;;5011987;28;20026;-84
2023/12/02 05:11:53;;;;;;;252.02;100.18;;;;;;;;;;5010999;28;20022;-85
2023/12/02 05:14:19;;;;;;;258.75;102.75;;;;;;;;;;5011011;28;20022;-83
2023/12/02 05:16:45;;;;;;;254.70;100.97;;;;;;;;;;5010878;28;20022;-83
2023/12/02 05:19:11;;;;;;;267.95;107.88;;;;;;;;;;4993386;28;20429;-84
2023/12/02 05:21:37;;;;;;;279.67;111.22;;;;;;;;;;5010836;28;20026;-84
2023/12/02 05:24:03;;;;;;;274.02;108.35;;;;;;;;;;4993134;28;20467;-83
2023/12/02 05:26:29;;;;;;;258.08;102.85;;;;;;;;;;5011438;28;20033;-84
2023/12/02 05:28:55;;;;;;;263.38;102.75;;;;;;;;;;5010817;28;20022;-84
2023/12/02 05:31:21;;;;;;;260.27;103.93;;;;;;;;;;5010637;28;20236;-84
2023/12/02 05:33:47;;;;;;;275.30;109.47;;;;;;;;;;5010684;28;20394;-83
2023/12/02 05:36:13;;;;;;;276.55;111.72;;;;;;;;;;5010611;28;20029;-83
2023/12/02 05:38:39;;;;;;;276.42;110.47;;;;;;;;;;5010638;28;20359;-84
2023/12/02 05:41:05;;;;;;;273.38;108.60;;;;;;;;;;4992929;28;20031;-83
2023/12/02 05:43:32;;;;;;;270.88;108.25;;;;;;;;;;5011269;28;20030;-88
2023/12/02 05:45:58;;;;;;;267.10;108.53;;;;;;;;;;4993539;28;20426;-84
2023/12/02 05:48:24;;;;;;;268.83;107.65;;;;;;;;;;5010252;28;20494;-84
2023/12/02 05:50:50;;;;;;;276.70;111.22;;;;;;;;;;5010358;28;20109;-83
2023/12/02 05:53:16;;;;;;;277.40;111.32;;;;;;;;;;5009867;28;20049;-90
2023/12/02 05:55:42;;;;;;;276.30;111.25;;;;;;;;;;5010330;28;20057;-83
2023/12/02 05:58:08;;;;;;;274.65;109.85;;;;;;;;;;5010105;28;20116;-83
2023/12/02 06:00:37;;;;;;;273.10;110.63;;;;;;;;;;5010134;28;20022;-85
2023/12/02 06:03:03;;;;;;;268.20;108.45;;;;;;;;;;5009859;28;20042;-83
2023/12/02 06:05:29;;;;;;;273.35;108.82;;;;;;;;;;5010799;28;20026;-84
2023/12/02 06:07:55;;;;;;;265.13;108.22;;;;;;;;;;4992376;28;20062;-83
2023/12/02 06:10:21;;;;;;;276.27;111.85;;;;;;;;;;5010057;28;20065;-84
2023/12/02 06:12:47;;;;;;;274.65;111.05;;;;;;;;;;4992428;28;20037;-84
2023/12/02 06:15:13;;;;;;;278.02;111.72;;;;;;;;;;5009972;28;20024;-83
2023/12/02 06:17:39;;;;;;;272.70;111.15;;;;;;;;;;5009818;28;20408;-84
2023/12/02 06:20:06;;;;;;;277.67;112.80;;;;;;;;;;5009837;28;20037;-85
2023/12/02 06:22:35;;;;;;;263.73;107.35;;;;;;;;;;5010689;28;20022;-83
2023/12/02 06:25:02;;;;;;;258.30;106.68;;;;;;;;;;5010639;28;20123;-83
2023/12/02 06:27:28;;;;;;;256.10;105.97;;;;;;;;;;5009691;28;20045;-84
2023/12/02 06:29:54;;;;;;;271.67;109.70;;;;;;;;;;5009751;28;20387;-89
2023/12/02 06:32:20;;;;;;;259.20;107.78;;;;;;;;;;4992126;28;20044;-84
2023/12/02 06:34:46;;;;;;;263.25;108.28;;;;;;;;;;4992168;28;20018;-85
2023/12/02 06:37:12;;;;;;;204.30;88.20;;;;;;;;;;4992060;28;20394;-84
2023/12/02 06:39:38;;;;;;;239.73;99.80;;;;;;;;;;5009498;28;20030;-85
2023/12/02 06:42:04;;;;;;;218.15;92.85;;;;;;;;;;5010326;28;20056;-87
2023/12/02 06:44:30;;;;;;;225.32;96.68;;;;;;;;;;5010362;28;20068;-84
2023/12/02 06:46:56;;;;;;;236.68;101.00;;;;;;;;;;5009349;28;20042;-83
2023/12/02 06:49:22;;;;;;;244.45;101.85;;;;;;;;;;4991838;28;20378;-84
2023/12/02 06:51:48;;;;;;;161.85;73.68;;;;;;;;;;5009332;28;20113;-84
2023/12/02 06:54:14;;;;;;;231.38;97.20;;;;;;;;;;5009408;28;20033;-83
2023/12/02 06:56:41;;;;;;;262.13;107.30;;;;;;;;;;5009380;28;20084;-86
2023/12/02 06:59:07;;;;;;;250.70;103.10;;;;;;;;;;4991688;28;20467;-89
2023/12/02 07:01:33;;;;;;;252.82;103.82;;;;;;;;;;5010060;28;20115;-83
2023/12/02 07:04:00;;;;;;;253.25;104.47;;;;;;;;;;4991398;28;20378;-89
2023/12/02 07:06:27;;;;;;;256.77;104.35;;;;;;;;;;5009238;28;20073;-83
2023/12/02 07:08:54;;;;;;;260.33;106.93;;;;;;;;;;5009242;28;20025;-84
2023/12/02 07:11:20;;;;;;;267.60;109.53;;;;;;;;;;5009284;28;20078;-84
2023/12/02 07:13:46;;;;;;;266.25;109.97;;;;;;;;;;5009164;28;20132;-83
2023/12/02 07:16:12;;;;;;;266.25;108.40;;;;;;;;;;5009222;28;20025;-84
2023/12/02 07:18:39;;;;;;;269.42;108.97;;;;;;;;;;5009249;28;20026;-83
2023/12/02 07:21:05;;;;;;;264.38;108.45;;;;;;;;;;4992534;28;20049;-83
2023/12/02 07:23:31;;;;;;;258.42;105.68;;;;;;;;;;5009200;28;20481;-83
2023/12/02 07:25:57;;;;;;;257.05;106.72;;;;;;;;;;5009099;28;20056;-83
2023/12/02 07:28:23;;;;;;;260.83;108.72;;;;;;;;;;5009093;28;20022;-84
2023/12/02 07:30:49;;;;;;;263.20;108.32;;;;;;;;;;4991403;28;20033;-84
2023/12/02 07:33:16;;;;;;;258.80;107.13;;;;;;;;;;5009140;28;20496;-87
2023/12/02 07:35:42;;;;;;;256.23;106.55;;;;;;;;;;5009000;28;20030;-83
2023/12/02 07:38:08;;;;;;;260.02;107.55;;;;;;;;;;5009037;28;20041;-83
2023/12/02 07:40:35;;;;;;;239.52;98.18;;;;;;;;;;5009893;28;20026;-83
2023/12/02 07:43:01;;;;;;;260.40;107.03;;;;;;;;;;4991253;28;20028;-82
2023/12/02 07:45:27;;;;;;;265.77;109.95;;;;;;;;;;5008831;28;20038;-83
2023/12/02 07:47:53;;;;;;;267.05;109.95;;;;;;;;;;5008871;28;20037;-84
2023/12/02 07:50:19;;;;;;;265.50;110.15;;;;;;;;;;5009022;28;20029;-89
2023/12/02 07:52:45;;;;;;;267.45;111.10;;;;;;;;;;5008968;28;20022;-85
2023/12/02 07:55:12;;;;;;;259.48;109.07;;;;;;;;;;5009840;28;20088;-84
2023/12/02 07:57:38;;;;;;;254.45;105.57;;;;;;;;;;5009731;28;20097;-85
2023/12/02 08:00:04;;;;;;;257.98;106.22;;;;;;;;;;5009621;28;20026;-86
2023/12/02 08:02:30;;;;;;;254.77;105.65;;;;;;;;;;5008303;28;20030;-86
2023/12/02 08:04:57;;;;;;;269.00;110.43;;;;;;;;;;5008600;28;20049;-87
2023/12/02 08:07:23;;;;;;;270.27;108.20;;;;;;;;;;5008653;28;20030;-88
2023/12/02 08:09:50;;;;;;;263.90;108.15;;;;;;;;;;5008608;28;20100;-83
2023/12/02 08:12:16;;;;;;;247.13;103.90;;;;;;;;;;5008530;28;20030;-85
2023/12/02 08:14:42;;;;;;;250.60;105.53;;;;;;;;;;5009288;28;20033;-83
2023/12/02 08:17:08;;;;;;;249.80;103.70;;;;;;;;;;5013013;28;20104;-85
2023/12/02 08:19:35;;;;;;;247.73;103.65;;;;;;;;;;4997320;28;20041;-84
2023/12/02 08:22:01;;;;;;;251.60;104.13;;;;;;;;;;5026336;28;20032;-90
2023/12/02 08:24:27;;;;;;;253.30;106.47;;;;;;;;;;5032003;28;20029;-83
2023/12/02 08:26:53;;;;;;;259.70;107.38;;;;;;;;;;5031424;28;20108;-86
2023/12/02 08:29:19;;;;;;;259.75;107.15;;;;;;;;;;5032104;28;20025;-90
2023/12/02 08:31:45;;;;;;;256.30;106.25;;;;;;;;;;5031590;28;20021;-91
2023/12/02 08:34:11;;;;;;;256.27;105.97;;;;;;;;;;5032026;28;20022;-83
2023/12/02 08:36:37;;;;;;;137.57;64.50;;;;;;;;;;5031650;28;20026;-84
2023/12/02 08:39:04;;;;;;;236.38;98.57;;;;;;;;;;5030857;28;20017;-82
2023/12/02 08:41:31;;;;;;;257.08;106.22;;;;;;;;;;5030389;28;20163;-84
2023/12/02 08:43:57;;;;;;;261.98;108.78;;;;;;;;;;5031145;28;20025;-85
2023/12/02 08:46:23;;;;;;;271.75;109.22;;;;;;;;;;5032502;28;20040;-84
2023/12/02 08:48:49;;;;;;;244.10;101.70;;;;;;;;;;5032685;28;20486;-89
2023/12/02 08:51:15;;;;;;;236.13;97.40;;;;;;;;;;5031617;28;20025;-85
2023/12/02 08:53:41;;;;;;;231.27;96.28;;;;;;;;;;5032272;28;20494;-83
2023/12/02 08:56:08;;;;;;;242.38;99.10;;;;;;;;;;5014079;28;20072;-85
2023/12/02 08:58:34;;;;;;;244.40;100.78;;;;;;;;;;5031227;28;20021;-83
2023/12/02 09:01:00;;;;;;;252.07;103.60;;;;;;;;;;5013299;28;20129;-89
2023/12/02 09:03:26;;;;;;;246.15;101.50;;;;;;;;;;5031161;28;20075;-84
2023/12/02 09:05:55;;;;;;;242.00;100.57;;;;;;;;;;5030934;28;20072;-83
2023/12/02 09:08:21;;;;;;;;;;;;;;;;;;5031414;28;20546;-83
2023/12/02 09:10:47;;;;;;;239.38;100.38;;;;;;;;;;5030913;28;19948;-83
2023/12/02 09:13:37;;;;;;;234.80;97.50;;;;;;;;;;5031438;28;20504;-83
2023/12/02 09:16:03;;;;;;;248.95;102.18;;;;;;;;;;5030913;28;20334;-83
2023/12/02 09:18:33;;;;;;;239.18;98.68;;;;;;;;;;5030720;28;20068;-83
2023/12/02 09:20:59;;;;;;;242.48;99.45;;;;;;;;;;5030784;28;20536;-83
2023/12/02 09:23:26;;;;;;;254.85;103.13;;;;;;;;;;5030571;28;20048;-83
2023/12/02 09:25:53;;;;;;;248.82;101.78;;;;;;;;;;5030405;28;20034;-85
2023/12/02 09:28:23;;;;;;;259.42;104.88;;;;;;;;;;5030142;28;20102;-84
2023/12/02 09:30:54;;;;;;;251.85;101.93;;;;;;;;;;5030428;28;20017;-92
2023/12/02 09:33:20;;;;;;;256.33;102.45;;;;;;;;;;5030295;28;20032;-83
2023/12/02 09:35:46;;;;;;;246.95;100.60;;;;;;;;;;5030397;28;20021;-90
2023/12/02 09:38:16;;;;;;;254.40;102.43;;;;;;;;;;5031765;28;20110;-92
2023/12/02 09:40:45;;;;;;;254.02;103.28;;;;;;;;;;5031393;28;20032;-84
2023/12/02 09:43:17;;;;;;;261.73;105.15;;;;;;;;;;5031171;28;20383;-84
2023/12/02 09:46:02;;;;;;;262.40;105.88;;;;;;;;;;5031181;28;20044;-88
2023/12/02 09:48:30;;;;;;;269.58;108.72;;;;;;;;;;5030519;28;20028;-85
2023/12/02 09:51:15;;;;;;;183.93;78.77;;;;;;;;;;5030449;28;20030;-91
2023/12/02 09:53:49;;;;;;;267.17;105.50;;;;;;;;;;5031065;28;20129;-85
2023/12/02 09:56:18;;;;;;;256.30;102.32;;;;;;;;;;5012912;28;20363;-83
2023/12/02 09:58:45;;;;;;;251.30;102.30;;;;;;;;;;5030748;28;20393;-83
2023/12/02 10:01:22;;;;;;;252.48;100.85;;;;;;;;;;5030655;28;20029;-83
2023/12/02 10:03:54;;;;;;;262.80;104.90;;;;;;;;;;5030013;28;20025;-83
2023/12/02 10:06:28;;;;;;;258.85;102.63;;;;;;;;;;5011928;28;20037;-83
2023/12/02 10:09:09;;;;;;;247.10;99.15;;;;;;;;;;5029748;28;20049;-83
2023/12/02 10:11:50;;;;;;;250.25;100.63;;;;;;;;;;5029876;28;20021;-92
2023/12/02 10:14:17;;;;;;;257.58;101.28;;;;;;;;;;5012393;28;20417;-83
2023/12/02 10:16:44;;;;;;;272.13;105.40;;;;;;;;;;5030707;28;20396;-85
2023/12/02 10:19:19;;;;;;;256.23;100.45;;;;;;;;;;5029729;28;20036;-89
2023/12/02 10:21:46;;;;;;;262.23;103.35;;;;;;;;;;5030749;28;20025;-90
2023/12/02 10:24:14;;;;;;;266.45;103.63;;;;;;;;;;5030514;28;20025;-86
2023/12/02 10:26:50;;;;;;;270.30;105.05;;;;;;;;;;5029625;28;20080;-89
2023/12/02 10:29:24;;;;;;;275.00;105.40;;;;;;;;;;5030659;28;20438;-86
2023/12/02 10:31:59;;;;;;;276.25;106.82;;;;;;;;;;5029507;28;20155;-90
2023/12/02 10:34:29;;;;;;;288.65;110.57;;;;;;;;;;5029586;28;20030;-84
2023/12/02 10:36:58;;;;;;;286.10;110.32;;;;;;;;;;5029536;28;20101;-85
2023/12/02 10:39:35;;;;;;;290.17;112.38;;;;;;;;;;5029302;28;20026;-89
2023/12/02 10:42:02;;;;;;;269.63;104.97;;;;;;;;;;5029521;28;20029;-88
2023/12/02 10:44:30;;;;;;;289.63;109.80;;;;;;;;;;5029274;28;20485;-88
2023/12/02 10:46:57;;;;;;;293.20;115.50;;;;;;;;;;5011641;28;20041;-90
2023/12/02 10:49:23;;;;;;;280.35;107.65;;;;;;;;;;5029281;28;20490;-86
2023/12/02 10:51:53;;;;;;;290.92;113.15;;;;;;;;;;5011480;28;20446;-85
2023/12/02 10:54:21;;;;;;;281.17;107.10;;;;;;;;;;5011598;28;20025;-84
2023/12/02 10:56:48;;;;;;;275.83;105.18;;;;;;;;;;5012169;28;20041;-84
2023/12/02 10:59:18;;;;;;;283.65;106.30;;;;;;;;;;5012197;28;20108;-84
2023/12/02 11:01:45;;;;;;;276.63;104.63;;;;;;;;;;5029811;28;20042;-85
2023/12/02 11:04:11;;;;;;;272.38;103.35;;;;;;;;;;5011431;28;20025;-86
2023/12/02 11:06:38;;;;;;;284.80;106.85;;;;;;;;;;5011443;28;20534;-84
2023/12/02 11:09:10;;;;;;;287.17;107.63;;;;;;;;;;5029068;28;20482;-84
2023/12/02 11:11:52;;;;;;;282.77;107.00;;;;;;;;;;5011204;28;20029;-85
2023/12/02 11:14:18;;;;;;;268.00;101.40;;;;;;;;;;5011867;28;20025;-85
2023/12/02 11:17:03;;;;;;;284.05;104.63;;;;;;;;;;5029797;28;20037;-85
2023/12/02 11:19:38;;;;;;;280.20;105.78;;;;;;;;;;5028959;28;20182;-84
2023/12/02 11:22:09;;;;;;;283.77;108.35;;;;;;;;;;5028968;28;20108;-87
2023/12/02 11:24:54;;;;;;;285.58;107.05;;;;;;;;;;5029035;28;20432;-89
2023/12/02 11:27:32;;;;;;;271.33;102.75;;;;;;;;;;5028961;28;20034;-85
2023/12/02 11:30:07;;;;;;;230.38;89.45;;;;;;;;;;5028933;28;20032;-87
2023/12/02 11:32:40;;;;;;;288.65;107.10;;;;;;;;;;5028902;28;20101;-85
2023/12/02 11:35:14;;;;;;;278.42;106.55;;;;;;;;;;5028923;28;20026;-85
2023/12/02 11:37:43;;;;;;;268.92;102.22;;;;;;;;;;5028845;28;20030;-84
2023/12/02 11:40:23;;;;;;;273.40;103.15;;;;;;;;;;5028980;28;20646;-87
2023/12/02 11:43:03;;;;;;;265.48;100.68;;;;;;;;;;5029740;28;20116;-88
2023/12/02 11:45:32;;;;;;;193.70;76.82;;;;;;;;;;5010776;28;20113;-86
2023/12/02 11:48:07;;;;;;;221.15;87.75;;;;;;;;;;5028672;28;20403;-85
2023/12/02 11:50:39;;;;;;;259.50;97.32;;;;;;;;;;5030653;28;20060;-85
2023/12/02 11:53:20;;;;;;;272.38;103.80;;;;;;;;;;5032387;28;20076;-84
2023/12/02 11:55:49;;;;;;;271.27;102.95;;;;;;;;;;5033358;28;20025;-84
2023/12/02 11:58:25;;;;;;;274.88;103.85;;;;;;;;;;5032405;28;20037;-86
2023/12/02 12:00:54;;;;;;;273.23;102.70;;;;;;;;;;5032709;28;20025;-85
2023/12/02 12:03:46;;;;;;;275.48;101.95;;;;;;;;;;5015332;28;20033;-84
2023/12/02 12:06:12;;;;;;;269.30;100.30;;;;;;;;;;5002285;28;20512;-84
2023/12/02 12:08:53;;;;;;;273.33;103.03;;;;;;;;;;5032283;28;20060;-90
2023/12/02 12:11:19;;;;;;;267.42;100.32;;;;;;;;;;5015544;28;20105;-84
2023/12/02 12:13:47;;;;;;;270.95;99.18;;;;;;;;;;5032155;28;20508;-84
2023/12/02 12:16:13;;;;;;;267.48;98.93;;;;;;;;;;5032066;28;20021;-84
2023/12/02 12:18:39;;;;;;;269.80;99.75;;;;;;;;;;5032006;28;20044;-91
2023/12/02 12:21:05;;;;;;;269.55;101.28;;;;;;;;;;5032042;28;20022;-84
2023/12/02 12:23:32;;;;;;;273.08;101.00;;;;;;;;;;5032029;28;20029;-84
2023/12/02 12:26:02;;;;;;;270.45;100.95;;;;;;;;;;5014261;28;20033;-85
2023/12/02 12:28:28;;;;;;;270.33;100.65;;;;;;;;;;5031722;28;20021;-84
2023/12/02 12:30:54;;;;;;;255.70;95.55;;;;;;;;;;5031699;28;20034;-84
2023/12/02 12:33:20;;;;;;;253.60;95.60;;;;;;;;;;5032519;28;20077;-84
2023/12/02 12:35:48;;;;;;;263.02;97.45;;;;;;;;;;5031591;28;20117;-83
2023/12/02 12:38:14;;;;;;;255.98;95.65;;;;;;;;;;5031543;28;20034;-84
2023/12/02 12:40:41;;;;;;;267.63;100.25;;;;;;;;;;5031470;28;20075;-84
2023/12/02 12:43:08;;;;;;;263.58;98.00;;;;;;;;;;5031308;28;20061;-91
2023/12/02 12:45:34;;;;;;;258.77;96.10;;;;;;;;;;5031591;28;20385;-83
2023/12/02 12:48:03;;;;;;;262.63;98.70;;;;;;;;;;5013636;28;20464;-85
2023/12/02 12:50:31;;;;;;;258.38;96.82;;;;;;;;;;5013565;28;20021;-84
2023/12/02 12:52:58;;;;;;;;;;;;;;;;;;5031767;28;20021;-84
2023/12/02 12:55:25;;;;;;;266.30;99.40;;;;;;;;;;5031189;28;20369;-83
2023/12/02 12:57:54;;;;;;;275.80;101.53;;;;;;;;;;5032015;28;20112;-84
2023/12/02 13:00:21;;;;;;;279.50;102.65;;;;;;;;;;5014196;28;20026;-84
2023/12/02 13:02:56;;;;;;;275.98;101.63;;;;;;;;;;5029877;28;20042;-84
2023/12/02 13:05:22;;;;;;;281.30;102.75;;;;;;;;;;5031797;28;20088;-84
2023/12/02 13:07:51;;;;;;;281.02;103.47;;;;;;;;;;5030994;28;20030;-84
2023/12/02 13:10:17;;;;;;;281.50;103.40;;;;;;;;;;5030974;28;20021;-84
2023/12/02 13:12:45;;;;;;;287.42;103.88;;;;;;;;;;5030940;28;20049;-84
2023/12/02 13:15:19;;;;;;;306.00;109.30;;;;;;;;;;5030925;28;20021;-85
2023/12/02 13:17:46;;;;;;;340.30;120.45;;;;;;;;;;5030871;28;20535;-85
2023/12/02 13:20:13;;;;;;;354.63;122.28;;;;;;;;;;5030691;28;20032;-84
2023/12/02 13:22:39;;;;;;;321.23;114.38;;;;;;;;;;5012931;28;20062;-84
2023/12/02 13:25:08;;;;;;;344.90;120.57;;;;;;;;;;5030678;28;20072;-84
2023/12/02 13:27:51;;;;;;;350.90;122.07;;;;;;;;;;5030659;28;20583;-84
2023/12/02 13:30:19;;;;;;;346.38;119.93;;;;;;;;;;5030583;28;20029;-84
2023/12/02 13:32:46;;;;;;;350.13;122.38;;;;;;;;;;5030498;28;20100;-85
2023/12/02 13:35:12;;;;;;;357.73;123.28;;;;;;;;;;5030807;28;20108;-88
2023/12/02 13:37:51;;;;;;;353.92;124.43;;;;;;;;;;5030644;28;20026;-91
2023/12/02 13:40:18;;;;;;;329.80;116.13;;;;;;;;;;5030508;28;20501;-84
2023/12/02 13:42:47;;;;;;;328.63;115.83;;;;;;;;;;5030292;28;20067;-84
2023/12/02 13:45:13;;;;;;;;;;;;;;;;;;5030699;28;20024;-84
2023/12/02 13:47:51;;;;;;;350.85;124.85;;;;;;;;;;5012475;28;19913;-85
2023/12/02 13:50:18;;;;;;;324.23;114.93;;;;;;;;;;5030429;28;20056;-86
2023/12/02 13:52:53;;;;;;;335.08;120.00;;;;;;;;;;5012644;28;20079;-86
2023/12/02 13:55:37;;;;;;;321.00;113.20;;;;;;;;;;5030384;28;20026;-86
2023/12/02 13:58:32;;;;;;;173.23;69.95;;;;;;;;;;5030162;28;20053;-87
2023/12/02 14:01:13;;;;;;;316.08;111.32;;;;;;;;;;4946792;28;20149;-84